sensor_id;sensor_type;location;lat;lon;timestamp;pressure;altitude;pressure_sealevel;temperature;humidity
16451;BME280;12243;42.708;23.310;2024-02-26T00:00:29;94579.75;;;9.21;100.00
16451;BME280;12243;42.708;23.310;2024-02-26T00:02:56;94587.91;;;9.06;100.00
16451;BME280;12243;42.708;23.310;2024-02-26T00:05:22;94590.63;;;9.05;100.00
16451;BME280;12243;42.708;23.310;2024-02-26T00:07:49;94584.84;;;9.01;100.00
16451;BME280;12243;42.708;23.310;2024-02-26T00:10:16;94588.72;;;9.07;100.00
16451;BME280;12243;42.708;23.310;2024-02-26T00:12:43;94586.25;;;9.05;100.00
16451;BME280;12243;42.708;23.310;2024-02-26T00:15:12;94574.22;;;9.04;100.00
16451;BME280;12243;42.708;23.310;2024-02-26T00:17:39;94579.00;;;9.09;100.00
16451;BME280;12243;42.708;23.310;2024-02-26T00:20:07;94576.56;;;9.07;100.00
16451;BME280;12243;42.708;23.310;2024-02-26T00:22:34;94574.78;;;9.08;100.00
16451;BME280;12243;42.708;23.310;2024-02-26T00:25:01;94577.22;;;9.10;100.00
16451;BME280;12243;42.708;23.310;2024-02-26T00:27:28;94576.31;;;9.11;100.00
16451;BME280;12243;42.708;23.310;2024-02-26T00:29:55;94565.25;;;9.18;100.00
16451;BME280;12243;42.708;23.310;2024-02-26T00:32:23;94569.38;;;9.30;100.00
16451;BME280;12243;42.708;23.310;2024-02-26T00:34:50;94565.09;;;9.20;100.00
16451;BME280;12243;42.708;23.310;2024-02-26T00:37:17;94562.66;;;9.18;100.00
16451;BME280;12243;42.708;23.310;2024-02-26T00:39:44;94566.06;;;9.19;100.00
16451;BME280;12243;42.708;23.310;2024-02-26T00:42:12;94558.00;;;9.22;100.00
16451;BME280;12243;42.708;23.310;2024-02-26T00:44:38;94552.56;;;9.25;100.00
16451;BME280;12243;42.708;23.310;2024-02-26T00:47:05;94555.41;;;9.22;100.00
16451;BME280;12243;42.708;23.310;2024-02-26T00:49:33;94548.66;;;9.10;100.00
16451;BME280;12243;42.708;23.310;2024-02-26T00:52:00;94549.63;;;9.09;100.00
16451;BME280;12243;42.708;23.310;2024-02-26T00:54:27;94549.34;;;9.12;100.00
16451;BME280;12243;42.708;23.310;2024-02-26T00:56:54;94545.81;;;9.13;100.00
16451;BME280;12243;42.708;23.310;2024-02-26T00:59:21;94539.28;;;9.18;100.00
16451;BME280;12243;42.708;23.310;2024-02-26T01:01:48;94538.75;;;9.24;100.00
16451;BME280;12243;42.708;23.310;2024-02-26T01:04:14;94536.97;;;9.25;100.00
16451;BME280;12243;42.708;23.310;2024-02-26T01:06:43;94530.94;;;9.24;100.00
16451;BME280;12243;42.708;23.310;2024-02-26T01:09:09;94538.09;;;9.32;100.00
16451;BME280;12243;42.708;23.310;2024-02-26T01:11:36;94531.91;;;9.33;100.00
16451;BME280;12243;42.708;23.310;2024-02-26T01:14:03;94532.91;;;9.42;100.00
16451;BME280;12243;42.708;23.310;2024-02-26T01:16:30;94532.38;;;9.48;100.00
16451;BME280;12243;42.708;23.310;2024-02-26T01:18:57;94532.50;;;9.46;100.00
16451;BME280;12243;42.708;23.310;2024-02-26T01:21:24;94536.59;;;9.39;100.00
16451;BME280;12243;42.708;23.310;2024-02-26T01:23:53;94536.00;;;9.26;100.00
16451;BME280;12243;42.708;23.310;2024-02-26T01:26:20;94531.09;;;9.33;100.00
16451;BME280;12243;42.708;23.310;2024-02-26T01:28:48;94537.13;;;9.33;100.00
16451;BME280;12243;42.708;23.310;2024-02-26T01:31:14;94536.00;;;9.26;100.00
16451;BME280;12243;42.708;23.310;2024-02-26T01:33:41;94530.00;;;9.25;100.00
16451;BME280;12243;42.708;23.310;2024-02-26T01:36:08;94534.97;;;9.38;100.00
16451;BME280;12243;42.708;23.310;2024-02-26T01:38:35;94529.72;;;9.28;100.00
16451;BME280;12243;42.708;23.310;2024-02-26T01:41:03;94527.81;;;9.21;100.00
16451;BME280;12243;42.708;23.310;2024-02-26T01:43:30;94527.50;;;9.14;100.00
16451;BME280;12243;42.708;23.310;2024-02-26T01:45:58;94521.50;;;9.14;100.00
16451;BME280;12243;42.708;23.310;2024-02-26T01:48:25;94523.13;;;9.15;100.00
16451;BME280;12243;42.708;23.310;2024-02-26T01:50:52;94515.75;;;9.20;100.00
16451;BME280;12243;42.708;23.310;2024-02-26T01:53:19;94514.25;;;9.27;100.00
16451;BME280;12243;42.708;23.310;2024-02-26T01:55:46;94519.63;;;9.35;100.00
16451;BME280;12243;42.708;23.310;2024-02-26T01:58:15;94509.78;;;9.39;100.00
16451;BME280;12243;42.708;23.310;2024-02-26T02:00:42;94513.75;;;9.43;100.00
16451;BME280;12243;42.708;23.310;2024-02-26T02:03:10;94517.72;;;9.37;100.00
16451;BME280;12243;42.708;23.310;2024-02-26T02:05:36;94511.19;;;9.52;100.00
16451;BME280;12243;42.708;23.310;2024-02-26T02:08:07;94508.97;;;9.48;100.00
16451;BME280;12243;42.708;23.310;2024-02-26T02:10:34;94516.09;;;9.46;100.00
16451;BME280;12243;42.708;23.310;2024-02-26T02:13:01;94508.69;;;9.41;100.00
16451;BME280;12243;42.708;23.310;2024-02-26T02:15:30;94510.09;;;9.45;100.00
16451;BME280;12243;42.708;23.310;2024-02-26T02:17:56;94506.78;;;9.43;100.00
16451;BME280;12243;42.708;23.310;2024-02-26T02:20:26;94506.53;;;9.46;100.00
16451;BME280;12243;42.708;23.310;2024-02-26T02:22:58;94502.44;;;9.53;100.00
16451;BME280;12243;42.708;23.310;2024-02-26T02:25:24;94507.88;;;9.50;100.00
16451;BME280;12243;42.708;23.310;2024-02-26T02:27:52;94510.34;;;9.42;100.00
16451;BME280;12243;42.708;23.310;2024-02-26T02:30:20;94513.78;;;9.52;100.00
16451;BME280;12243;42.708;23.310;2024-02-26T02:32:47;94505.69;;;9.46;100.00
16451;BME280;12243;42.708;23.310;2024-02-26T02:35:15;94499.69;;;9.55;100.00
16451;BME280;12243;42.708;23.310;2024-02-26T02:37:43;94504.88;;;9.45;100.00
16451;BME280;12243;42.708;23.310;2024-02-26T02:40:10;94502.41;;;9.44;100.00
16451;BME280;12243;42.708;23.310;2024-02-26T02:42:37;94503.47;;;9.41;100.00
16451;BME280;12243;42.708;23.310;2024-02-26T02:45:04;94511.44;;;9.49;100.00
16451;BME280;12243;42.708;23.310;2024-02-26T02:47:31;94506.53;;;9.56;100.00
16451;BME280;12243;42.708;23.310;2024-02-26T02:49:58;94507.09;;;9.60;100.00
16451;BME280;12243;42.708;23.310;2024-02-26T02:52:25;94520.06;;;9.50;100.00
16451;BME280;12243;42.708;23.310;2024-02-26T02:54:53;94513.63;;;9.35;100.00
16451;BME280;12243;42.708;23.310;2024-02-26T02:57:20;94520.84;;;9.31;100.00
16451;BME280;12243;42.708;23.310;2024-02-26T02:59:47;94529.22;;;9.35;100.00
16451;BME280;12243;42.708;23.310;2024-02-26T03:02:14;94527.03;;;9.40;100.00
16451;BME280;12243;42.708;23.310;2024-02-26T03:04:40;94519.06;;;9.41;100.00
16451;BME280;12243;42.708;23.310;2024-02-26T03:07:07;94529.47;;;9.41;100.00
16451;BME280;12243;42.708;23.310;2024-02-26T03:09:34;94527.56;;;9.43;100.00
16451;BME280;12243;42.708;23.310;2024-02-26T03:12:02;94522.94;;;9.47;100.00
16451;BME280;12243;42.708;23.310;2024-02-26T03:14:29;94516.88;;;9.37;100.00
16451;BME280;12243;42.708;23.310;2024-02-26T03:16:57;94529.75;;;9.38;100.00
16451;BME280;12243;42.708;23.310;2024-02-26T03:19:24;94518.66;;;9.36;100.00
16451;BME280;12243;42.708;23.310;2024-02-26T03:21:51;94518.81;;;9.44;100.00
16451;BME280;12243;42.708;23.310;2024-02-26T03:24:17;94520.22;;;9.48;100.00
16451;BME280;12243;42.708;23.310;2024-02-26T03:26:44;94517.63;;;9.48;100.00
16451;BME280;12243;42.708;23.310;2024-02-26T03:29:12;94512.00;;;9.53;100.00
16451;BME280;12243;42.708;23.310;2024-02-26T03:31:39;94496.16;;;9.56;100.00
16451;BME280;12243;42.708;23.310;2024-02-26T03:34:06;94502.81;;;9.59;100.00
16451;BME280;12243;42.708;23.310;2024-02-26T03:36:33;94500.22;;;9.59;100.00
16451;BME280;12243;42.708;23.310;2024-02-26T03:39:00;94501.63;;;9.63;100.00
16451;BME280;12243;42.708;23.310;2024-02-26T03:41:29;94493.66;;;9.54;100.00
16451;BME280;12243;42.708;23.310;2024-02-26T03:43:57;94502.97;;;9.57;100.00
16451;BME280;12243;42.708;23.310;2024-02-26T03:46:25;94508.16;;;9.47;100.00
16451;BME280;12243;42.708;23.310;2024-02-26T03:48:52;94510.63;;;9.49;100.00
16451;BME280;12243;42.708;23.310;2024-02-26T03:51:19;94505.56;;;9.47;100.00
16451;BME280;12243;42.708;23.310;2024-02-26T03:53:46;94502.03;;;9.48;100.00
16451;BME280;12243;42.708;23.310;2024-02-26T03:56:13;94493.53;;;9.46;100.00
16451;BME280;12243;42.708;23.310;2024-02-26T03:58:40;94491.88;;;9.45;100.00
16451;BME280;12243;42.708;23.310;2024-02-26T04:01:07;94495.84;;;9.49;100.00
16451;BME280;12243;42.708;23.310;2024-02-26T04:03:35;94498.31;;;9.51;100.00
16451;BME280;12243;42.708;23.310;2024-02-26T04:06:03;94495.84;;;9.49;100.00
16451;BME280;12243;42.708;23.310;2024-02-26T04:08:30;94485.72;;;9.46;100.00
16451;BME280;12243;42.708;23.310;2024-02-26T04:10:56;94486.97;;;9.42;100.00
16451;BME280;12243;42.708;23.310;2024-02-26T04:13:23;94481.31;;;9.37;100.00
16451;BME280;12243;42.708;23.310;2024-02-26T04:15:50;94486.53;;;9.37;100.00
16451;BME280;12243;42.708;23.310;2024-02-26T04:18:17;94488.44;;;9.45;100.00
16451;BME280;12243;42.708;23.310;2024-02-26T04:20:45;94484.06;;;9.36;100.00
16451;BME280;12243;42.708;23.310;2024-02-26T04:23:12;94473.66;;;9.36;100.00
16451;BME280;12243;42.708;23.310;2024-02-26T04:25:39;94477.50;;;9.32;100.00
16451;BME280;12243;42.708;23.310;2024-02-26T04:28:05;94486.38;;;9.29;100.00
16451;BME280;12243;42.708;23.310;2024-02-26T04:30:32;94481.41;;;9.16;100.00
16451;BME280;12243;42.708;23.310;2024-02-26T04:32:59;94481.28;;;9.18;100.00
16451;BME280;12243;42.708;23.310;2024-02-26T04:35:26;94475.41;;;9.16;100.00
16451;BME280;12243;42.708;23.310;2024-02-26T04:37:54;94478.56;;;9.19;100.00
16451;BME280;12243;42.708;23.310;2024-02-26T04:40:21;94475.94;;;9.19;100.00
16451;BME280;12243;42.708;23.310;2024-02-26T04:42:48;94485.38;;;9.20;100.00
16451;BME280;12243;42.708;23.310;2024-02-26T04:45:15;94485.94;;;9.24;100.00
16451;BME280;12243;42.708;23.310;2024-02-26T04:47:42;94485.00;;;9.25;100.00
16451;BME280;12243;42.708;23.310;2024-02-26T04:50:09;94498.53;;;9.19;100.00
16451;BME280;12243;42.708;23.310;2024-02-26T04:52:36;94488.38;;;9.16;100.00
16451;BME280;12243;42.708;23.310;2024-02-26T04:55:05;94485.38;;;9.20;100.00
16451;BME280;12243;42.708;23.310;2024-02-26T04:57:32;94496.63;;;9.21;100.00
16451;BME280;12243;42.708;23.310;2024-02-26T04:59:58;94503.00;;;9.17;100.00
16451;BME280;12243;42.708;23.310;2024-02-26T05:02:25;94494.28;;;9.18;100.00
16451;BME280;12243;42.708;23.310;2024-02-26T05:04:52;94487.03;;;9.21;100.00
16451;BME280;12243;42.708;23.310;2024-02-26T05:07:19;94497.03;;;9.26;100.00
16451;BME280;12243;42.708;23.310;2024-02-26T05:09:46;94508.22;;;9.17;100.00
16451;BME280;12243;42.708;23.310;2024-02-26T05:12:16;94514.25;;;9.27;100.00
16451;BME280;12243;42.708;23.310;2024-02-26T05:14:43;94523.13;;;9.15;100.00
16451;BME280;12243;42.708;23.310;2024-02-26T05:17:10;94519.44;;;9.17;100.00
16451;BME280;12243;42.708;23.310;2024-02-26T05:19:36;94523.91;;;9.05;100.00
16451;BME280;12243;42.708;23.310;2024-02-26T05:22:03;94521.41;;;8.94;100.00
16451;BME280;12243;42.708;23.310;2024-02-26T05:24:30;94529.03;;;8.86;100.00
16451;BME280;12243;42.708;23.310;2024-02-26T05:26:57;94534.78;;;8.90;100.00
16451;BME280;12243;42.708;23.310;2024-02-26T05:29:25;94541.88;;;8.88;100.00
16451;BME280;12243;42.708;23.310;2024-02-26T05:31:52;94539.03;;;8.91;100.00
16451;BME280;12243;42.708;23.310;2024-02-26T05:34:19;94542.22;;;9.04;100.00
16451;BME280;12243;42.708;23.310;2024-02-26T05:36:47;94543.31;;;9.01;100.00
16451;BME280;12243;42.708;23.310;2024-02-26T05:39:14;94554.59;;;8.91;100.00
16451;BME280;12243;42.708;23.310;2024-02-26T05:41:41;94551.75;;;8.94;100.00
16451;BME280;12243;42.708;23.310;2024-02-26T05:44:09;94553.44;;;9.04;100.00
16451;BME280;12243;42.708;23.310;2024-02-26T05:46:37;94551.97;;;9.12;100.00
16451;BME280;12243;42.708;23.310;2024-02-26T05:49:04;94547.72;;;9.11;100.00
16451;BME280;12243;42.708;23.310;2024-02-26T05:51:32;94543.75;;;9.16;100.00
16451;BME280;12243;42.708;23.310;2024-02-26T05:53:59;94554.72;;;9.20;100.00
16451;BME280;12243;42.708;23.310;2024-02-26T05:56:26;94549.81;;;9.26;100.00
16451;BME280;12243;42.708;23.310;2024-02-26T05:58:53;94552.84;;;9.32;100.00
16451;BME280;12243;42.708;23.310;2024-02-26T06:01:20;94550.94;;;9.34;100.00
16451;BME280;12243;42.708;23.310;2024-02-26T06:03:48;94559.03;;;9.40;100.00
16451;BME280;12243;42.708;23.310;2024-02-26T06:06:15;94554.28;;;9.45;100.00
16451;BME280;12243;42.708;23.310;2024-02-26T06:08:42;94556.19;;;9.53;100.00
16451;BME280;12243;42.708;23.310;2024-02-26T06:11:09;94559.19;;;9.58;100.00
16451;BME280;12243;42.708;23.310;2024-02-26T06:13:36;94556.91;;;9.65;100.00
16451;BME280;12243;42.708;23.310;2024-02-26T06:16:03;94570.47;;;9.78;100.00
16451;BME280;12243;42.708;23.310;2024-02-26T06:18:30;94561.31;;;9.84;100.00
16451;BME280;12243;42.708;23.310;2024-02-26T06:20:58;94563.78;;;9.85;100.00
16451;BME280;12243;42.708;23.310;2024-02-26T06:23:26;94563.25;;;9.91;100.00
16451;BME280;12243;42.708;23.310;2024-02-26T06:25:53;94569.00;;;9.95;100.00
16451;BME280;12243;42.708;23.310;2024-02-26T06:28:19;94566.69;;;10.01;100.00
16451;BME280;12243;42.708;23.310;2024-02-26T06:30:46;94571.19;;;10.09;100.00
16451;BME280;12243;42.708;23.310;2024-02-26T06:33:13;94567.09;;;10.16;100.00
16451;BME280;12243;42.708;23.310;2024-02-26T06:35:40;94568.19;;;10.14;100.00
16451;BME280;12243;42.708;23.310;2024-02-26T06:38:09;94570.78;;;10.14;100.00
16451;BME280;12243;42.708;23.310;2024-02-26T06:40:38;94564.34;;;10.18;100.00
16451;BME280;12243;42.708;23.310;2024-02-26T06:43:04;94566.81;;;10.10;100.00
16451;BME280;12243;42.708;23.310;2024-02-26T06:45:31;94572.56;;;10.03;100.00
16451;BME280;12243;42.708;23.310;2024-02-26T06:47:58;94569.03;;;10.05;100.00
16451;BME280;12243;42.708;23.310;2024-02-26T06:50:25;94573.09;;;10.07;100.00
16451;BME280;12243;42.708;23.310;2024-02-26T06:52:52;94564.47;;;10.07;100.00
16451;BME280;12243;42.708;23.310;2024-02-26T06:55:20;94565.44;;;10.06;100.00
16451;BME280;12243;42.708;23.310;2024-02-26T06:57:47;94571.63;;;10.05;100.00
16451;BME280;12243;42.708;23.310;2024-02-26T07:00:15;94567.63;;;10.00;100.00
16451;BME280;12243;42.708;23.310;2024-02-26T07:02:42;94567.09;;;10.07;100.00
16451;BME280;12243;42.708;23.310;2024-02-26T07:05:09;94568.19;;;10.14;100.00
16451;BME280;12243;42.708;23.310;2024-02-26T07:07:36;94572.03;;;10.19;100.00
16451;BME280;12243;42.708;23.310;2024-02-26T07:10:03;94568.66;;;10.29;100.00
16451;BME280;12243;42.708;23.310;2024-02-26T07:12:32;94578.09;;;10.39;99.32
16451;BME280;12243;42.708;23.310;2024-02-26T07:14:59;94572.03;;;10.48;99.05
16451;BME280;12243;42.708;23.310;2024-02-26T07:17:28;94579.72;;;10.40;98.69
16451;BME280;12243;42.708;23.310;2024-02-26T07:19:54;94586.03;;;10.47;99.23
16451;BME280;12243;42.708;23.310;2024-02-26T07:22:21;94581.34;;;10.61;98.98
16451;BME280;12243;42.708;23.310;2024-02-26T07:24:48;94583.97;;;10.61;98.41
16451;BME280;12243;42.708;23.310;2024-02-26T07:27:15;94584.63;;;10.63;97.33
16451;BME280;12243;42.708;23.310;2024-02-26T07:29:44;94577.94;;;10.60;97.21
16451;BME280;12243;42.708;23.310;2024-02-26T07:32:11;94576.16;;;10.61;96.32
16451;BME280;12243;42.708;23.310;2024-02-26T07:34:41;94580.00;;;10.57;96.65
16451;BME280;12243;42.708;23.310;2024-02-26T07:37:10;94581.91;;;10.55;97.52
16451;BME280;12243;42.708;23.310;2024-02-26T07:39:37;94579.31;;;10.55;98.11
16451;BME280;12243;42.708;23.310;2024-02-26T07:42:04;94591.63;;;10.72;96.98
16451;BME280;12243;42.708;23.310;2024-02-26T07:44:32;94581.59;;;10.77;96.41
16451;BME280;12243;42.708;23.310;2024-02-26T07:47:00;94589.00;;;10.82;97.13
16451;BME280;12243;42.708;23.310;2024-02-26T07:49:28;94581.19;;;10.82;96.85
16451;BME280;12243;42.708;23.310;2024-02-26T07:51:55;94586.53;;;10.80;97.06
16451;BME280;12243;42.708;23.310;2024-02-26T07:54:23;94578.69;;;10.90;96.60
16451;BME280;12243;42.708;23.310;2024-02-26T07:56:50;94588.13;;;11.01;95.91
16451;BME280;12243;42.708;23.310;2024-02-26T07:59:17;94583.88;;;11.09;96.11
16451;BME280;12243;42.708;23.310;2024-02-26T08:01:43;94579.28;;;11.21;94.54
16451;BME280;12243;42.708;23.310;2024-02-26T08:04:12;94582.53;;;11.33;93.31
16451;BME280;12243;42.708;23.310;2024-02-26T08:06:39;94574.75;;;11.23;94.68
16451;BME280;12243;42.708;23.310;2024-02-26T08:09:06;94572.06;;;11.42;93.99
16451;BME280;12243;42.708;23.310;2024-02-26T08:11:33;94573.13;;;11.50;93.70
16451;BME280;12243;42.708;23.310;2024-02-26T08:13:59;94576.06;;;11.64;92.04
16451;BME280;12243;42.708;23.310;2024-02-26T08:16:26;94575.72;;;11.77;91.69
16451;BME280;12243;42.708;23.310;2024-02-26T08:18:53;94577.50;;;11.86;90.96
16451;BME280;12243;42.708;23.310;2024-02-26T08:21:22;94570.22;;;12.08;89.50
16451;BME280;12243;42.708;23.310;2024-02-26T08:23:48;94574.97;;;12.12;88.39
16451;BME280;12243;42.708;23.310;2024-02-26T08:26:15;94575.09;;;12.21;88.48
16451;BME280;12243;42.708;23.310;2024-02-26T08:28:42;94570.28;;;12.16;87.95
16451;BME280;12243;42.708;23.310;2024-02-26T08:31:10;94572.59;;;12.19;88.92
16451;BME280;12243;42.708;23.310;2024-02-26T08:33:37;94575.91;;;12.21;89.39
16451;BME280;12243;42.708;23.310;2024-02-26T08:36:04;94571.41;;;12.49;88.67
16451;BME280;12243;42.708;23.310;2024-02-26T08:38:33;94567.78;;;12.68;86.71
16451;BME280;12243;42.708;23.310;2024-02-26T08:41:01;94577.38;;;12.85;85.46
16451;BME280;12243;42.708;23.310;2024-02-26T08:43:28;94565.34;;;12.93;85.12
16451;BME280;12243;42.708;23.310;2024-02-26T08:45:56;94571.97;;;13.05;83.82
16451;BME280;12243;42.708;23.310;2024-02-26T08:48:23;94566.13;;;13.11;84.01
16451;BME280;12243;42.708;23.310;2024-02-26T08:50:50;94567.78;;;13.12;84.08
16451;BME280;12243;42.708;23.310;2024-02-26T08:53:16;94568.28;;;13.16;83.55
16451;BME280;12243;42.708;23.310;2024-02-26T08:55:45;94569.09;;;13.16;83.05
16451;BME280;12243;42.708;23.310;2024-02-26T08:58:11;94567.81;;;13.20;82.94
16451;BME280;12243;42.708;23.310;2024-02-26T09:00:38;94571.41;;;13.19;82.83
16451;BME280;12243;42.708;23.310;2024-02-26T09:03:05;94568.47;;;13.22;83.12
16451;BME280;12243;42.708;23.310;2024-02-26T09:05:32;94560.38;;;13.33;83.38
16451;BME280;12243;42.708;23.310;2024-02-26T09:07:59;94561.59;;;13.47;82.18
16451;BME280;12243;42.708;23.310;2024-02-26T09:10:25;94555.69;;;13.45;82.41
16451;BME280;12243;42.708;23.310;2024-02-26T09:12:54;94551.63;;;13.51;82.24
16451;BME280;12243;42.708;23.310;2024-02-26T09:15:21;94556.38;;;13.55;81.81
16451;BME280;12243;42.708;23.310;2024-02-26T09:17:48;94564.69;;;13.43;82.71
16451;BME280;12243;42.708;23.310;2024-02-26T09:20:15;94554.25;;;13.51;83.50
16451;BME280;12243;42.708;23.310;2024-02-26T09:22:45;94552.34;;;13.69;82.38
16451;BME280;12243;42.708;23.310;2024-02-26T09:25:12;94554.84;;;13.79;81.43
16451;BME280;12243;42.708;23.310;2024-02-26T09:27:41;94546.16;;;13.70;82.64
16451;BME280;12243;42.708;23.310;2024-02-26T09:30:11;94545.38;;;13.86;81.52
16451;BME280;12243;42.708;23.310;2024-02-26T09:32:38;94547.41;;;14.09;80.75
16451;BME280;12243;42.708;23.310;2024-02-26T09:35:06;94545.28;;;14.28;78.99
16451;BME280;12243;42.708;23.310;2024-02-26T09:37:33;94545.13;;;14.46;78.27
16451;BME280;12243;42.708;23.310;2024-02-26T09:40:03;94534.22;;;14.51;76.10
16451;BME280;12243;42.708;23.310;2024-02-26T09:42:31;94541.03;;;14.36;75.80
16451;BME280;12243;42.708;23.310;2024-02-26T09:45:00;94539.56;;;14.41;75.93
16451;BME280;12243;42.708;23.310;2024-02-26T09:47:31;94533.03;;;14.53;75.80
16451;BME280;12243;42.708;23.310;2024-02-26T09:50:00;94536.16;;;14.73;74.93
16451;BME280;12243;42.708;23.310;2024-02-26T09:52:31;94526.97;;;14.86;72.87
16451;BME280;12243;42.708;23.310;2024-02-26T09:55:00;94533.19;;;14.93;72.34
16451;BME280;12243;42.708;23.310;2024-02-26T09:57:29;94538.75;;;14.98;72.29
16451;BME280;12243;42.708;23.310;2024-02-26T09:59:59;94534.47;;;15.13;70.63
16451;BME280;12243;42.708;23.310;2024-02-26T10:02:36;94521.97;;;15.15;70.01
16451;BME280;12243;42.708;23.310;2024-02-26T10:05:03;94519.22;;;15.09;69.56
16451;BME280;12243;42.708;23.310;2024-02-26T10:07:31;94523.78;;;15.15;69.46
16451;BME280;12243;42.708;23.310;2024-02-26T10:09:58;94520.66;;;15.28;69.38
16451;BME280;12243;42.708;23.310;2024-02-26T10:12:26;94516.66;;;15.40;68.56
16451;BME280;12243;42.708;23.310;2024-02-26T10:14:54;94510.78;;;15.38;67.89
16451;BME280;12243;42.708;23.310;2024-02-26T10:17:21;94507.88;;;15.16;68.49
16451;BME280;12243;42.708;23.310;2024-02-26T10:19:50;94504.75;;;15.21;68.33
16451;BME280;12243;42.708;23.310;2024-02-26T10:22:21;94506.81;;;15.42;66.70
16451;BME280;12243;42.708;23.310;2024-02-26T10:24:49;94491.94;;;15.26;66.99
16451;BME280;12243;42.708;23.310;2024-02-26T10:27:15;94498.69;;;15.20;67.14
16451;BME280;12243;42.708;23.310;2024-02-26T10:29:42;94490.78;;;15.29;66.48
16451;BME280;12243;42.708;23.310;2024-02-26T10:32:10;94490.13;;;15.27;66.61
16451;BME280;12243;42.708;23.310;2024-02-26T10:34:39;94490.50;;;15.15;66.69
16451;BME280;12243;42.708;23.310;2024-02-26T10:37:09;94488.53;;;15.17;67.15
16451;BME280;12243;42.708;23.310;2024-02-26T10:39:36;94478.91;;;15.49;66.17
16451;BME280;12243;42.708;23.310;2024-02-26T10:42:04;94487.72;;;15.56;65.62
16451;BME280;12243;42.708;23.310;2024-02-26T10:44:35;94482.13;;;15.67;65.78
16451;BME280;12243;42.708;23.310;2024-02-26T10:47:02;94476.81;;;15.76;64.70
16451;BME280;12243;42.708;23.310;2024-02-26T10:49:29;94489.56;;;15.87;64.62
16451;BME280;12243;42.708;23.310;2024-02-26T10:51:56;94484.19;;;16.03;63.13
16451;BME280;12243;42.708;23.310;2024-02-26T10:54:26;94477.59;;;16.07;62.79
16451;BME280;12243;42.708;23.310;2024-02-26T10:56:56;94474.63;;;16.10;62.60
16451;BME280;12243;42.708;23.310;2024-02-26T10:59:23;94474.31;;;16.28;62.46
16451;BME280;12243;42.708;23.310;2024-02-26T11:01:50;94473.22;;;16.23;62.44
16451;BME280;12243;42.708;23.310;2024-02-26T11:04:18;94472.63;;;16.35;61.80
16451;BME280;12243;42.708;23.310;2024-02-26T11:06:46;94466.84;;;16.40;62.05
16451;BME280;12243;42.708;23.310;2024-02-26T11:09:15;94469.81;;;16.37;61.24
16451;BME280;12243;42.708;23.310;2024-02-26T11:11:44;94467.63;;;16.26;60.54
16451;BME280;12243;42.708;23.310;2024-02-26T11:14:11;94460.97;;;16.15;60.87
16451;BME280;12243;42.708;23.310;2024-02-26T11:16:40;94460.16;;;15.91;61.53
16451;BME280;12243;42.708;23.310;2024-02-26T11:19:08;94457.59;;;15.83;62.53
16451;BME280;12243;42.708;23.310;2024-02-26T11:21:36;94458.75;;;15.81;62.49
16451;BME280;12243;42.708;23.310;2024-02-26T11:24:07;94455.94;;;15.82;63.14
16451;BME280;12243;42.708;23.310;2024-02-26T11:26:40;94467.91;;;16.08;62.58
16451;BME280;12243;42.708;23.310;2024-02-26T11:29:13;94459.69;;;16.11;61.17
16451;BME280;12243;42.708;23.310;2024-02-26T11:31:40;94462.81;;;16.06;61.46
16451;BME280;12243;42.708;23.310;2024-02-26T11:34:08;94459.44;;;16.20;61.34
16451;BME280;12243;42.708;23.310;2024-02-26T11:36:36;94453.38;;;16.20;60.88
16451;BME280;12243;42.708;23.310;2024-02-26T11:39:04;94449.13;;;16.19;61.04
16451;BME280;12243;42.708;23.310;2024-02-26T11:41:31;94453.56;;;16.18;61.40
16451;BME280;12243;42.708;23.310;2024-02-26T11:44:00;94451.38;;;16.22;60.75
16451;BME280;12243;42.708;23.310;2024-02-26T11:46:30;94447.66;;;16.16;61.20
16451;BME280;12243;42.708;23.310;2024-02-26T11:49:02;94444.25;;;16.31;61.03
16451;BME280;12243;42.708;23.310;2024-02-26T11:51:33;94440.69;;;16.24;61.41
16451;BME280;12243;42.708;23.310;2024-02-26T11:54:01;94442.06;;;16.34;60.60
16451;BME280;12243;42.708;23.310;2024-02-26T11:56:28;94440.91;;;16.37;60.48
16451;BME280;12243;42.708;23.310;2024-02-26T11:59:02;94440.66;;;16.32;59.82
16451;BME280;12243;42.708;23.310;2024-02-26T12:01:41;94434.34;;;16.18;60.34
16451;BME280;12243;42.708;23.310;2024-02-26T12:04:11;94437.25;;;16.23;60.29
16451;BME280;12243;42.708;23.310;2024-02-26T12:06:48;94444.81;;;16.41;59.37
16451;BME280;12243;42.708;23.310;2024-02-26T12:09:36;94442.41;;;16.16;59.61
16451;BME280;12243;42.708;23.310;2024-02-26T12:12:05;94440.13;;;16.13;59.61
16451;BME280;12243;42.708;23.310;2024-02-26T12:14:33;94441.13;;;16.12;59.61
16451;BME280;12243;42.708;23.310;2024-02-26T12:17:03;94439.19;;;16.06;60.28
16451;BME280;12243;42.708;23.310;2024-02-26T12:19:32;94440.19;;;16.05;59.97
16451;BME280;12243;42.708;23.310;2024-02-26T12:22:00;94442.16;;;16.03;60.02
16451;BME280;12243;42.708;23.310;2024-02-26T12:24:27;94444.56;;;16.13;59.54
16451;BME280;12243;42.708;23.310;2024-02-26T12:26:54;94446.25;;;16.29;59.06
16451;BME280;12243;42.708;23.310;2024-02-26T12:29:21;94445.72;;;16.48;58.72
16451;BME280;12243;42.708;23.310;2024-02-26T12:31:48;94442.88;;;16.73;57.31
16451;BME280;12243;42.708;23.310;2024-02-26T12:34:16;94449.69;;;16.67;56.83
16451;BME280;12243;42.708;23.310;2024-02-26T12:36:43;94442.19;;;16.79;57.13
16451;BME280;12243;42.708;23.310;2024-02-26T12:39:13;94450.28;;;16.77;56.29
16451;BME280;12243;42.708;23.310;2024-02-26T12:41:40;94449.47;;;16.92;56.25
16451;BME280;12243;42.708;23.310;2024-02-26T12:44:11;94449.25;;;17.08;54.85
16451;BME280;12243;42.708;23.310;2024-02-26T12:46:39;94446.91;;;17.28;53.63
16451;BME280;12243;42.708;23.310;2024-02-26T12:49:06;94446.91;;;17.28;53.74
16451;BME280;12243;42.708;23.310;2024-02-26T12:51:34;94437.84;;;17.16;54.26